createdAt,value
2019-04-03T00:01:34.338Z,4.43
2019-04-03T00:04:04.668Z,2.70
2019-04-03T00:06:33.707Z,3.93
2019-04-03T00:09:06.517Z,5.13
2019-04-03T00:11:35.200Z,5.00
2019-04-03T00:14:03.448Z,5.53
2019-04-03T00:16:31.698Z,5.43
2019-04-03T00:18:59.935Z,3.50
2019-04-03T00:21:28.463Z,3.75
2019-04-03T00:23:56.708Z,3.10
2019-04-03T00:26:24.947Z,4.80
2019-04-03T00:28:53.223Z,2.93
2019-04-03T00:31:22.975Z,3.07
2019-04-03T00:33:51.664Z,3.50
2019-04-03T00:36:23.319Z,2.87
2019-04-03T00:38:53.918Z,2.87
2019-04-03T00:41:24.118Z,4.47
2019-04-03T00:43:52.724Z,3.37
2019-04-03T00:46:22.820Z,4.15
2019-04-03T00:48:51.526Z,3.70
2019-04-03T00:51:19.762Z,3.87
2019-04-03T00:53:48.031Z,3.77
2019-04-03T00:56:16.274Z,4.97
2019-04-03T00:58:44.507Z,3.17
2019-04-03T01:01:13.124Z,3.00
2019-04-03T01:03:41.802Z,3.67
2019-04-03T01:06:10.077Z,2.90
2019-04-03T01:08:38.334Z,3.77
2019-04-03T01:11:06.573Z,5.07
2019-04-03T01:13:34.810Z,2.93
2019-04-03T01:16:03.200Z,4.73
2019-04-03T01:18:34.206Z,6.50
2019-04-03T01:21:01.464Z,5.20
2019-04-03T01:23:30.125Z,4.50
2019-04-03T01:25:58.434Z,4.77
2019-04-03T01:28:26.678Z,4.13
2019-04-03T01:30:55.006Z,5.70
2019-04-03T01:33:23.389Z,4.17
2019-04-03T01:35:51.657Z,4.97
2019-04-03T01:38:20.139Z,5.93
2019-04-03T01:40:48.909Z,4.70
2019-04-03T01:43:18.321Z,4.57
2019-04-03T01:45:46.652Z,4.50
2019-04-03T01:48:14.878Z,5.20
2019-04-03T01:50:43.150Z,5.23
2019-04-03T01:53:11.449Z,3.80
2019-04-03T01:55:39.690Z,4.30
2019-04-03T01:58:08.073Z,4.03
2019-04-03T02:00:37.664Z,3.60
2019-04-03T02:03:06.393Z,3.90
2019-04-03T02:05:34.626Z,4.10
2019-04-03T02:08:02.891Z,4.03
2019-04-03T02:10:31.129Z,3.40
2019-04-03T02:12:59.387Z,4.10
2019-04-03T02:15:27.616Z,3.83
2019-04-03T02:17:55.854Z,3.67
2019-04-03T02:20:24.668Z,4.00
2019-04-03T02:22:54.123Z,3.20
2019-04-03T02:25:23.038Z,3.60
2019-04-03T02:27:51.409Z,3.17
2019-04-03T02:30:19.656Z,3.87
2019-04-03T02:32:48.412Z,2.93
2019-04-03T02:35:16.954Z,3.23
2019-04-03T02:37:48.262Z,3.43
2019-04-03T02:40:15.479Z,4.47
2019-04-03T02:42:43.696Z,3.77
2019-04-03T02:45:12.201Z,2.90
2019-04-03T02:47:40.460Z,4.20
2019-04-03T02:50:08.985Z,3.07
2019-04-03T02:52:37.313Z,4.03
2019-04-03T02:55:07.626Z,2.95
2019-04-03T02:57:36.549Z,3.30
2019-04-03T03:00:07.750Z,4.75
2019-04-03T03:02:35.979Z,4.30
2019-04-03T03:05:05.865Z,3.20
2019-04-03T03:07:36.303Z,2.77
2019-04-03T03:10:05.515Z,3.70
2019-04-03T03:12:33.839Z,3.20
2019-04-03T03:15:02.167Z,3.63
2019-04-03T03:17:30.584Z,5.03
2019-04-03T03:19:59.084Z,3.67
2019-04-03T03:22:27.862Z,4.00
2019-04-03T03:24:56.361Z,3.80
2019-04-03T03:27:26.236Z,2.63
2019-04-03T03:29:58.620Z,3.00
2019-04-03T03:32:33.384Z,3.27
2019-04-03T03:35:07.586Z,3.97
2019-04-03T03:37:26.110Z,5.50
2019-04-03T03:39:54.434Z,3.70
2019-04-03T03:42:23.063Z,3.50
2019-04-03T03:44:51.363Z,3.83
2019-04-03T03:47:19.600Z,4.25
2019-04-03T03:49:49.670Z,3.70
2019-04-03T03:52:18.091Z,2.70
2019-04-03T03:54:49.653Z,3.70
2019-04-03T03:57:17.899Z,5.73
2019-04-03T03:59:49.403Z,4.23
2019-04-03T04:02:16.183Z,4.43
2019-04-03T04:04:46.529Z,5.87
2019-04-03T04:07:14.839Z,3.60
2019-04-03T04:09:43.231Z,4.20
2019-04-03T04:12:11.987Z,5.63
2019-04-03T04:14:40.730Z,4.97
2019-04-03T04:17:15.137Z,4.70
2019-04-03T04:19:39.190Z,3.83
2019-04-03T04:22:09.123Z,4.70
2019-04-03T04:24:37.407Z,4.63
2019-04-03T04:27:05.719Z,5.67
2019-04-03T04:29:34.402Z,4.83
2019-04-03T04:32:02.701Z,3.17
2019-04-03T04:34:30.946Z,4.50
2019-04-03T04:37:02.073Z,4.97
2019-04-03T04:39:29.397Z,3.77
2019-04-03T04:41:57.698Z,4.60
2019-04-03T04:44:25.960Z,3.90
2019-04-03T04:46:54.255Z,4.83
2019-04-03T04:49:22.728Z,4.93
2019-04-03T04:51:51.513Z,3.67
2019-04-03T04:54:19.744Z,4.28
2019-04-03T04:56:47.965Z,3.83
2019-04-03T04:59:16.224Z,5.05
2019-04-03T05:01:44.463Z,4.80
2019-04-03T05:04:15.133Z,6.80
2019-04-03T05:06:42.987Z,5.60
2019-04-03T05:09:11.216Z,3.70
2019-04-03T05:11:39.499Z,6.10
2019-04-03T05:14:07.791Z,6.00
2019-04-03T05:16:36.026Z,6.73
2019-04-03T05:19:10.657Z,6.07
2019-04-03T05:21:35.139Z,5.97
2019-04-03T05:24:12.157Z,5.47
2019-04-03T05:26:33.328Z,6.33
2019-04-03T05:29:04.680Z,6.23
2019-04-03T05:31:33.506Z,5.00
2019-04-03T05:34:01.732Z,5.33
2019-04-03T05:36:29.978Z,8.93
2019-04-03T05:38:59.618Z,6.83
2019-04-03T05:41:29.392Z,5.10
2019-04-03T05:43:57.913Z,5.13
2019-04-03T05:46:26.146Z,6.27
2019-04-03T05:48:54.449Z,5.10
2019-04-03T05:51:22.690Z,7.33
2019-04-03T05:53:53.704Z,4.97
2019-04-03T05:56:20.874Z,6.70
2019-04-03T05:58:56.184Z,5.83
2019-04-03T06:01:19.129Z,6.07
2019-04-03T06:03:47.357Z,6.80
2019-04-03T06:06:15.689Z,5.85
2019-04-03T06:08:44.189Z,6.27
2019-04-03T06:11:12.442Z,7.53
2019-04-03T06:13:40.694Z,7.90
2019-04-03T06:16:08.918Z,5.93
2019-04-03T06:18:37.267Z,6.03
2019-04-03T06:21:05.501Z,7.03
2019-04-03T06:23:33.898Z,8.55
2019-04-03T06:26:02.528Z,7.80
2019-04-03T06:28:31.401Z,6.93
2019-04-03T06:30:59.686Z,11.83
2019-04-03T06:33:31.315Z,5.77
2019-04-03T06:35:58.583Z,6.07
2019-04-03T06:38:26.986Z,5.77
2019-04-03T06:40:55.214Z,7.50
2019-04-03T06:43:23.944Z,8.07
2019-04-03T06:45:52.216Z,10.30
2019-04-03T06:48:20.680Z,6.60
2019-04-03T06:50:49.148Z,9.00
2019-04-03T06:53:17.603Z,7.62
2019-04-03T06:55:45.912Z,7.07
2019-04-03T06:58:14.259Z,8.18
2019-04-03T07:00:42.587Z,6.70
2019-04-03T07:03:10.890Z,7.87
2019-04-03T07:05:41.673Z,10.03
2019-04-03T07:08:09.826Z,6.83
2019-04-03T07:10:40.287Z,6.10
2019-04-03T07:13:08.085Z,9.47
2019-04-03T07:15:36.306Z,8.40
2019-04-03T07:18:05.988Z,8.03
2019-04-03T07:20:35.081Z,7.43
2019-04-03T07:23:03.723Z,7.00
2019-04-03T07:25:33.923Z,5.70
2019-04-03T07:28:02.120Z,6.07
2019-04-03T07:30:30.355Z,6.20
2019-04-03T07:32:58.585Z,7.23
2019-04-03T07:35:27.166Z,11.73
2019-04-03T07:37:55.433Z,7.53
2019-04-03T07:40:23.669Z,5.70
2019-04-03T07:42:52.258Z,7.20
2019-04-03T07:45:20.634Z,6.43
2019-04-03T07:47:48.893Z,5.43
2019-04-03T07:50:17.251Z,7.80
2019-04-03T07:52:47.492Z,10.87
2019-04-03T07:55:15.485Z,8.43
2019-04-03T07:57:43.766Z,6.97
2019-04-03T08:00:12.320Z,8.33
2019-04-03T08:02:46.944Z,8.20
2019-04-03T08:05:10.939Z,6.30
2019-04-03T08:07:39.323Z,10.03
2019-04-03T08:10:07.829Z,10.82
2019-04-03T08:12:36.144Z,7.53
2019-04-03T08:15:08.106Z,8.50
2019-04-03T08:17:36.375Z,10.20
2019-04-03T08:20:06.469Z,7.75
2019-04-03T08:22:34.729Z,7.60
2019-04-03T08:25:03.273Z,7.73
2019-04-03T08:27:31.553Z,7.67
2019-04-03T08:30:00.098Z,9.78
2019-04-03T08:32:28.645Z,7.40
2019-04-03T08:34:57.033Z,8.10
2019-04-03T08:37:30.162Z,8.40
2019-04-03T08:39:57.680Z,7.63
2019-04-03T08:42:27.510Z,7.03
2019-04-03T08:44:55.318Z,10.10
2019-04-03T08:47:23.554Z,6.90
2019-04-03T08:49:51.826Z,7.83
2019-04-03T08:52:20.126Z,7.83
2019-04-03T08:54:48.372Z,7.80
2019-04-03T08:57:20.000Z,7.15
2019-04-03T08:59:46.654Z,7.57
2019-04-03T09:02:14.994Z,7.13
2019-04-03T09:04:43.340Z,8.50
2019-04-03T09:07:11.575Z,6.40
2019-04-03T09:09:39.909Z,7.33
2019-04-03T09:12:08.221Z,8.47
2019-04-03T09:14:36.498Z,7.43
2019-04-03T09:17:05.273Z,6.40
2019-04-03T09:19:33.648Z,6.07
2019-04-03T09:22:01.891Z,5.87
2019-04-03T09:24:49.890Z,10.63
2019-04-03T09:27:18.113Z,4.90
2019-04-03T09:29:49.690Z,7.70
2019-04-03T09:32:18.086Z,4.75
2019-04-03T09:34:46.318Z,6.47
2019-04-03T09:37:17.412Z,4.47
2019-04-03T09:39:45.839Z,5.12
2019-04-03T09:42:16.277Z,5.62
2019-04-03T09:44:44.518Z,5.37
2019-04-03T09:47:12.857Z,4.07
2019-04-03T09:49:43.764Z,4.53
2019-04-03T09:52:11.050Z,3.57
2019-04-03T09:54:39.409Z,4.20
2019-04-03T09:57:07.721Z,5.08
2019-04-03T09:59:37.827Z,5.27
2019-04-03T10:02:06.938Z,3.23
2019-04-03T10:04:35.445Z,2.97
2019-04-03T10:07:03.988Z,5.57
2019-04-03T10:09:32.370Z,3.80
2019-04-03T10:12:00.611Z,3.83
2019-04-03T10:14:29.073Z,6.80
2019-04-03T10:16:57.684Z,4.83
2019-04-03T10:19:26.121Z,4.17
2019-04-03T10:21:54.350Z,5.90
2019-04-03T10:24:22.593Z,4.17
2019-04-03T10:26:52.689Z,3.57
2019-04-03T10:29:20.868Z,4.87
2019-04-03T10:31:49.472Z,3.40
2019-04-03T10:34:18.141Z,3.85
2019-04-03T10:36:46.453Z,2.50
2019-04-03T10:39:14.862Z,3.90
2019-04-03T10:41:43.263Z,5.73
2019-04-03T10:44:11.828Z,2.20
2019-04-03T10:46:40.259Z,3.43
2019-04-03T10:49:08.533Z,3.13
2019-04-03T10:51:36.803Z,4.60
2019-04-03T10:54:05.380Z,3.57
2019-04-03T10:56:33.615Z,2.10
2019-04-03T10:59:10.720Z,3.60
2019-04-03T11:01:32.239Z,2.40
2019-04-03T11:04:00.484Z,2.13
2019-04-03T11:06:29.038Z,4.57
2019-04-03T11:08:57.851Z,4.13
2019-04-03T11:11:27.168Z,5.23
2019-04-03T11:13:56.090Z,3.70
2019-04-03T11:16:24.558Z,3.13
2019-04-03T11:19:00.145Z,3.03
2019-04-03T11:21:23.182Z,2.63
2019-04-03T11:23:51.525Z,7.07
2019-04-03T11:26:23.611Z,2.63
2019-04-03T11:28:49.732Z,2.70
2019-04-03T11:31:25.880Z,4.47
2019-04-03T11:33:50.580Z,3.60
2019-04-03T11:36:17.904Z,3.92
2019-04-03T11:38:46.164Z,3.63
2019-04-03T11:41:18.358Z,4.30
2019-04-03T11:43:44.396Z,3.47
2019-04-03T11:46:12.734Z,3.12
2019-04-03T11:48:43.324Z,2.83
2019-04-03T11:51:11.169Z,4.40
2019-04-03T11:53:39.703Z,2.47
2019-04-03T11:56:07.976Z,2.33
2019-04-03T11:58:36.611Z,3.00
2019-04-03T12:01:05.859Z,3.23
2019-04-03T12:03:34.265Z,2.10
2019-04-03T12:06:02.526Z,3.90
2019-04-03T12:08:31.252Z,3.73
2019-04-03T12:10:59.839Z,2.57
2019-04-03T12:13:28.076Z,2.53
2019-04-03T12:15:58.429Z,2.53
2019-04-03T12:18:26.402Z,3.10
2019-04-03T12:20:54.650Z,3.67
2019-04-03T12:23:25.611Z,4.10
2019-04-03T12:25:52.842Z,4.67
2019-04-03T12:28:21.073Z,2.77
2019-04-03T12:30:49.314Z,4.20
2019-04-03T12:33:18.861Z,3.95
2019-04-03T12:35:47.498Z,4.10
2019-04-03T12:38:16.037Z,3.17
2019-04-03T12:40:44.465Z,3.00
2019-04-03T12:43:12.723Z,2.45
2019-04-03T12:45:42.425Z,2.33
2019-04-03T12:48:10.710Z,3.27
2019-04-03T12:50:38.991Z,2.40
2019-04-03T12:53:07.261Z,4.10
2019-04-03T12:55:35.495Z,3.13
2019-04-03T12:58:04.677Z,3.00
2019-04-03T13:00:33.730Z,2.50
2019-04-03T13:03:02.368Z,3.20
2019-04-03T13:05:30.762Z,2.93
2019-04-03T13:07:59.947Z,3.77
2019-04-03T13:10:40.196Z,2.63
2019-04-03T13:12:58.731Z,5.73
2019-04-03T13:15:26.967Z,1.87
2019-04-03T13:17:55.446Z,1.70
2019-04-03T13:20:23.712Z,1.63
2019-04-03T13:22:53.497Z,1.50
2019-04-03T13:25:22.325Z,1.27
2019-04-03T13:27:50.661Z,1.37
2019-04-03T13:30:18.917Z,2.85
2019-04-03T13:32:57.940Z,2.15
2019-04-03T13:35:17.204Z,2.05
2019-04-03T13:37:45.451Z,1.87
2019-04-03T13:40:13.713Z,8.70
2019-04-03T13:42:41.943Z,4.17
2019-04-03T13:45:11.876Z,3.80
2019-04-03T13:47:42.011Z,1.67
2019-04-03T13:50:10.648Z,1.40
2019-04-03T13:52:43.210Z,2.37
2019-04-03T13:55:09.069Z,3.60
2019-04-03T13:57:37.328Z,2.87
2019-04-03T14:00:18.293Z,1.47
2019-04-03T14:02:38.672Z,2.93
2019-04-03T14:05:07.745Z,1.20
2019-04-03T14:07:41.698Z,2.77
2019-04-03T14:10:09.268Z,2.50
2019-04-03T14:12:41.242Z,1.50
2019-04-03T14:15:07.584Z,2.10
2019-04-03T14:17:36.645Z,2.90
2019-04-03T14:20:09.098Z,1.87
2019-04-03T14:22:37.519Z,2.13
2019-04-03T14:25:18.145Z,2.22
2019-04-03T14:27:36.591Z,4.27
2019-04-03T14:30:11.612Z,2.10
2019-04-03T14:32:38.985Z,2.70
2019-04-03T14:35:35.161Z,2.60
2019-04-03T14:37:37.517Z,2.40
2019-04-03T14:40:07.063Z,3.00
2019-04-03T14:42:35.368Z,3.60
2019-04-03T14:45:06.805Z,2.37
2019-04-03T14:47:35.252Z,1.97
2019-04-03T14:50:24.875Z,3.47
2019-04-03T14:52:53.661Z,4.60
2019-04-03T14:55:23.322Z,2.17
2019-04-03T14:57:53.744Z,6.70
2019-04-03T15:00:27.367Z,2.50
2019-04-03T15:02:53.088Z,2.67
2019-04-03T15:05:22.077Z,2.17
2019-04-03T15:07:50.926Z,2.77
2019-04-03T15:10:19.870Z,3.00
2019-04-03T15:12:48.253Z,1.93
2019-04-03T15:15:16.928Z,1.63
2019-04-03T15:17:45.638Z,4.78
2019-04-03T15:20:16.905Z,1.40
2019-04-03T15:22:44.017Z,1.83
2019-04-03T15:25:12.874Z,2.53
2019-04-03T15:27:42.506Z,1.47
2019-04-03T15:30:12.073Z,4.08
2019-04-03T15:32:41.045Z,0.73
2019-04-03T15:35:09.297Z,1.30
2019-04-03T15:37:40.550Z,0.97
2019-04-03T15:40:07.961Z,0.90
2019-04-03T15:42:40.236Z,1.30
2019-04-03T15:45:07.984Z,1.33
2019-04-03T15:47:39.089Z,5.70
2019-04-03T15:50:08.967Z,1.30
2019-04-03T15:52:39.034Z,1.33
2019-04-03T15:55:07.747Z,1.40
2019-04-03T15:57:38.816Z,1.23
2019-04-03T16:00:11.028Z,1.83
2019-04-03T16:02:39.411Z,1.57
2019-04-03T16:05:08.454Z,1.20
2019-04-03T16:07:40.471Z,1.80
2019-04-03T16:10:07.223Z,1.07
2019-04-03T16:12:36.497Z,1.77
2019-04-03T16:15:09.601Z,2.03
2019-04-03T16:17:39.155Z,1.77
2019-04-03T16:20:07.971Z,1.50
2019-04-03T16:22:36.186Z,1.10
2019-04-03T16:25:06.925Z,1.47
2019-04-03T16:27:35.380Z,2.27
2019-04-03T16:30:08.347Z,1.67
2019-04-03T16:32:36.763Z,1.40
2019-04-03T16:35:08.662Z,1.97
2019-04-03T16:37:37.208Z,2.23
2019-04-03T16:40:06.927Z,1.20
2019-04-03T16:42:35.529Z,2.00
2019-04-03T16:45:08.522Z,1.50
2019-04-03T16:47:36.837Z,2.13
2019-04-03T16:50:07.091Z,2.60
2019-04-03T16:52:37.499Z,1.40
2019-04-03T16:55:07.022Z,2.10
2019-04-03T16:57:37.168Z,4.60
2019-04-03T17:00:09.946Z,1.67
2019-04-03T17:02:38.633Z,2.27
2019-04-03T17:05:08.636Z,2.10
2019-04-03T17:07:38.213Z,2.33
2019-04-03T17:10:09.365Z,2.97
2019-04-03T17:12:36.795Z,1.63
2019-04-03T17:15:06.553Z,1.70
2019-04-03T17:17:35.437Z,1.20
2019-04-03T17:20:06.167Z,2.20
2019-04-03T17:22:34.404Z,1.97
2019-04-03T17:25:02.769Z,2.20
2019-04-03T17:27:31.617Z,1.50
2019-04-03T17:29:59.946Z,1.87
2019-04-03T17:32:29.916Z,1.37
2019-04-03T17:35:06.865Z,1.10
2019-04-03T17:37:34.647Z,1.57
2019-04-03T17:40:05.742Z,1.43
2019-04-03T17:42:33.984Z,2.13
2019-04-03T17:45:02.296Z,2.37
2019-04-03T17:47:30.529Z,2.73
2019-04-03T17:49:59.261Z,1.62
2019-04-03T17:52:28.190Z,2.20
2019-04-03T17:54:56.442Z,3.63
2019-04-03T17:57:25.161Z,2.50
2019-04-03T17:59:53.407Z,1.87
2019-04-03T18:02:22.823Z,2.97
2019-04-03T18:04:51.680Z,2.80
2019-04-03T18:07:19.914Z,3.03
2019-04-03T18:09:48.187Z,5.13
2019-04-03T18:12:21.157Z,3.93
2019-04-03T18:14:46.474Z,1.83
2019-04-03T18:17:14.728Z,2.27
2019-04-03T18:19:43.252Z,2.90
2019-04-03T18:22:11.493Z,3.30
2019-04-03T18:24:39.803Z,4.07
2019-04-03T18:27:08.051Z,2.10
2019-04-03T18:29:37.545Z,4.40
2019-04-03T18:32:06.590Z,2.97
2019-04-03T18:34:34.938Z,1.73
2019-04-03T18:37:04.042Z,3.83
2019-04-03T18:39:32.776Z,1.33
2019-04-03T18:42:01.233Z,2.17
2019-04-03T18:44:30.299Z,3.03
2019-04-03T18:46:58.685Z,2.00
2019-04-03T18:49:27.000Z,1.93
2019-04-03T18:51:55.238Z,2.77
2019-04-03T18:54:23.474Z,1.97
2019-04-03T18:56:51.724Z,1.77
2019-04-03T18:59:19.974Z,1.95
2019-04-03T19:01:48.257Z,2.57
2019-04-03T19:04:16.527Z,1.63
2019-04-03T19:06:45.282Z,2.20
2019-04-03T19:09:13.958Z,1.90
2019-04-03T19:11:42.210Z,2.42
2019-04-03T19:14:10.449Z,1.65
2019-04-03T19:16:44.009Z,2.80
2019-04-03T19:19:08.682Z,2.90
2019-04-03T19:21:36.897Z,2.40
2019-04-03T19:24:05.133Z,2.65
2019-04-03T19:26:33.617Z,2.70
2019-04-03T19:29:04.849Z,3.23
2019-04-03T19:31:31.851Z,1.73
2019-04-03T19:34:01.857Z,3.00
2019-04-03T19:36:30.506Z,1.63
2019-04-03T19:38:58.889Z,1.67
2019-04-03T19:41:28.446Z,1.43
2019-04-03T19:43:56.647Z,2.17
2019-04-03T19:46:24.901Z,2.20
2019-04-03T19:48:53.162Z,1.83
2019-04-03T19:51:21.533Z,2.22
2019-04-03T19:53:58.960Z,2.13
2019-04-03T19:56:19.750Z,1.77
2019-04-03T19:58:48.083Z,1.50
2019-04-03T20:01:16.541Z,1.40
2019-04-03T20:03:44.912Z,2.00
2019-04-03T20:06:13.307Z,2.60
2019-04-03T20:08:41.573Z,1.10
2019-04-03T20:11:10.136Z,3.02
2019-04-03T20:13:39.804Z,2.93
2019-04-03T20:16:08.333Z,1.73
2019-04-03T20:18:36.586Z,1.73
2019-04-03T20:21:05.265Z,2.60
2019-04-03T20:23:33.504Z,2.03
2019-04-03T20:26:04.563Z,2.67
2019-04-03T20:28:31.776Z,3.23
2019-04-03T20:31:00.018Z,1.77
2019-04-03T20:33:28.395Z,2.10
2019-04-03T20:35:56.622Z,2.20
2019-04-03T20:38:25.634Z,2.53
2019-04-03T20:40:54.830Z,2.17
2019-04-03T20:43:23.065Z,1.33
2019-04-03T20:45:51.298Z,2.00
2019-04-03T20:48:19.621Z,1.92
2019-04-03T20:50:47.859Z,1.90
2019-04-03T20:53:17.094Z,2.90
2019-04-03T20:55:46.227Z,1.83
2019-04-03T20:58:14.473Z,2.83
2019-04-03T21:00:42.709Z,2.03
2019-04-03T21:03:12.995Z,4.03
2019-04-03T21:05:40.943Z,3.17
2019-04-03T21:08:09.187Z,1.80
2019-04-03T21:10:37.714Z,2.27
2019-04-03T21:13:06.862Z,2.87
2019-04-03T21:15:35.959Z,2.75
2019-04-03T21:18:05.406Z,1.97
2019-04-03T21:20:33.649Z,2.53
2019-04-03T21:23:03.654Z,2.52
2019-04-03T21:25:35.632Z,2.17
2019-04-03T21:28:02.436Z,1.70
2019-04-03T21:30:30.672Z,2.30
2019-04-03T21:32:59.862Z,2.50
2019-04-03T21:35:28.729Z,2.17
2019-04-03T21:37:56.963Z,2.23
2019-04-03T21:40:26.853Z,2.87
2019-04-03T21:42:57.600Z,3.40
2019-04-03T21:45:25.042Z,3.77
2019-04-03T21:47:53.282Z,2.67
2019-04-03T21:50:21.523Z,2.97
2019-04-03T21:52:49.758Z,2.70
2019-04-03T21:55:18.007Z,3.40
2019-04-03T21:57:46.250Z,2.77
2019-04-03T22:00:17.835Z,2.77
2019-04-03T22:02:49.279Z,1.77
2019-04-03T22:05:16.445Z,3.55
2019-04-03T22:07:44.666Z,3.03
2019-04-03T22:10:14.809Z,3.30
2019-04-03T22:12:43.037Z,2.00
2019-04-03T22:15:13.710Z,2.05
2019-04-03T22:17:43.571Z,2.23
2019-04-03T22:20:11.214Z,2.10
2019-04-03T22:22:39.459Z,2.00
2019-04-03T22:25:08.941Z,3.70
2019-04-03T22:27:37.769Z,3.23
2019-04-03T22:30:06.217Z,3.17
2019-04-03T22:32:34.733Z,2.57
2019-04-03T22:35:03.229Z,2.23
2019-04-03T22:37:31.469Z,2.90
2019-04-03T22:39:59.734Z,2.53
2019-04-03T22:42:27.969Z,4.17
2019-04-03T22:44:56.197Z,2.43
2019-04-03T22:47:25.048Z,2.97
2019-04-03T22:49:54.028Z,2.93
2019-04-03T22:52:22.278Z,2.58
2019-04-03T22:54:50.518Z,3.13
2019-04-03T22:57:20.386Z,2.67
2019-04-03T22:59:48.613Z,3.30
2019-04-03T23:02:16.861Z,3.27
2019-04-03T23:04:46.358Z,3.90
2019-04-03T23:07:15.289Z,2.83
2019-04-03T23:09:43.760Z,2.63
2019-04-03T23:12:12.011Z,2.80
2019-04-03T23:14:40.276Z,2.53
2019-04-03T23:17:08.513Z,2.07
2019-04-03T23:19:36.780Z,2.37
2019-04-03T23:22:05.031Z,3.70
2019-04-03T23:24:33.338Z,2.17
2019-04-03T23:27:02.783Z,2.20
2019-04-03T23:29:31.577Z,2.87
2019-04-03T23:32:00.473Z,3.10
2019-04-03T23:34:28.705Z,2.57
2019-04-03T23:36:56.943Z,2.30
2019-04-03T23:39:27.668Z,5.90
2019-04-03T23:41:55.235Z,2.60
2019-04-03T23:44:23.491Z,2.20
2019-04-03T23:46:51.800Z,4.83
2019-04-03T23:49:20.209Z,2.83
2019-04-03T23:51:49.035Z,1.97
2019-04-03T23:54:17.759Z,5.30
2019-04-03T23:56:46.001Z,3.03
2019-04-03T23:59:14.221Z,3.10
